createdAt,value
2018-07-01T00:00:20.181Z,99.90
2018-07-01T00:02:48.652Z,99.90
2018-07-01T00:05:17.203Z,99.90
2018-07-01T00:07:45.626Z,99.90
2018-07-01T00:10:14.048Z,99.90
2018-07-01T00:12:42.477Z,99.90
2018-07-01T00:15:10.894Z,99.90
2018-07-01T00:17:39.352Z,99.90
2018-07-01T00:20:09.272Z,99.90
2018-07-01T00:22:38.333Z,99.90
2018-07-01T00:25:07.006Z,99.90
2018-07-01T00:27:35.496Z,99.90
2018-07-01T00:30:04.750Z,99.90
2018-07-01T00:32:33.339Z,99.90
2018-07-01T00:35:01.785Z,99.90
2018-07-01T00:37:30.224Z,99.90
2018-07-01T00:39:58.600Z,99.90
2018-07-01T00:42:27.050Z,99.90
2018-07-01T00:44:55.482Z,99.90
2018-07-01T00:47:23.975Z,99.90
2018-07-01T00:49:52.431Z,99.90
2018-07-01T00:52:20.890Z,99.90
2018-07-01T00:54:49.320Z,99.90
2018-07-01T00:57:17.908Z,99.90
2018-07-01T00:59:46.442Z,99.90
2018-07-01T01:02:14.852Z,99.90
2018-07-01T01:04:43.267Z,99.90
2018-07-01T01:07:11.733Z,99.90
2018-07-01T01:09:40.113Z,99.90
2018-07-01T01:12:08.537Z,99.90
2018-07-01T01:14:36.969Z,99.90
2018-07-01T01:17:05.440Z,99.90
2018-07-01T01:19:33.869Z,99.90
2018-07-01T01:22:02.416Z,99.90
2018-07-01T01:24:30.954Z,99.90
2018-07-01T01:26:59.497Z,99.90
2018-07-01T01:29:28.466Z,99.90
2018-07-01T01:31:56.946Z,99.90
2018-07-01T01:34:25.391Z,99.90
2018-07-01T01:39:24.929Z,99.90
2018-07-01T01:41:58.645Z,99.90
2018-07-01T01:45:31.952Z,99.90
2018-07-01T01:48:08.392Z,99.90
2018-07-01T01:51:12.449Z,99.90
2018-07-01T01:53:51.244Z,99.90
2018-07-01T01:56:27.725Z,99.90
2018-07-01T01:59:03.625Z,99.90
2018-07-01T02:02:09.737Z,99.90
2018-07-01T02:04:47.108Z,99.90
2018-07-01T02:07:33.898Z,99.90
2018-07-01T02:10:02.354Z,99.90
2018-07-01T02:12:30.821Z,99.90
2018-07-01T02:15:02.625Z,99.90
2018-07-01T02:17:36.545Z,99.90
2018-07-01T02:20:05.332Z,99.90
2018-07-01T02:22:37.365Z,99.90
2018-07-01T02:25:09.492Z,99.90
2018-07-01T02:27:38.005Z,99.90
2018-07-01T02:30:06.464Z,99.90
2018-07-01T02:32:34.920Z,99.90
2018-07-01T02:35:03.412Z,99.90
2018-07-01T02:37:31.845Z,99.90
2018-07-01T02:40:00.251Z,99.90
2018-07-01T02:42:28.851Z,99.90
2018-07-01T02:44:57.674Z,99.90
2018-07-01T02:47:26.118Z,99.90
2018-07-01T02:49:54.549Z,99.90
2018-07-01T02:52:22.952Z,99.90
2018-07-01T02:54:51.496Z,99.90
2018-07-01T02:57:19.992Z,99.90
2018-07-01T02:59:48.710Z,99.90
2018-07-01T03:02:17.824Z,99.90
2018-07-01T03:04:46.254Z,99.90
2018-07-01T03:07:14.906Z,99.90
2018-07-01T03:09:43.348Z,99.90
2018-07-01T03:12:11.742Z,99.90
2018-07-01T03:14:40.122Z,99.90
2018-07-01T03:17:08.621Z,99.90
2018-07-01T03:19:37.033Z,99.90
2018-07-01T03:24:33.654Z,99.90
2018-07-01T03:27:02.053Z,99.90
2018-07-01T03:29:30.503Z,99.90
2018-07-01T03:31:58.896Z,99.90
2018-07-01T03:34:27.374Z,99.90
2018-07-01T03:36:56.221Z,99.90
2018-07-01T03:39:24.658Z,99.90
2018-07-01T03:41:53.112Z,99.90
2018-07-01T03:44:21.706Z,99.90
2018-07-01T03:46:50.113Z,99.90
2018-07-01T03:49:18.503Z,99.90
2018-07-01T03:51:46.945Z,99.90
2018-07-01T03:54:15.397Z,99.90
2018-07-01T03:56:43.920Z,99.90
2018-07-01T03:59:12.308Z,99.90
2018-07-01T04:01:40.752Z,99.90
2018-07-01T04:04:09.174Z,99.90
2018-07-01T04:06:37.591Z,99.90
2018-07-01T04:09:08.618Z,99.90
2018-07-01T04:11:37.023Z,99.90
2018-07-01T04:14:05.421Z,99.90
2018-07-01T04:16:33.805Z,99.90
2018-07-01T04:19:02.365Z,99.90
2018-07-01T04:21:30.836Z,99.90
2018-07-01T04:23:59.320Z,99.90
2018-07-01T04:26:27.796Z,99.90
2018-07-01T04:28:56.253Z,99.90
2018-07-01T04:31:24.738Z,99.90
2018-07-01T04:33:53.173Z,99.90
2018-07-01T04:36:21.713Z,99.90
2018-07-01T04:38:50.192Z,99.90
2018-07-01T04:41:18.563Z,99.90
2018-07-01T04:43:47.829Z,99.90
2018-07-01T04:46:16.185Z,99.90
2018-07-01T04:48:44.632Z,99.90
2018-07-01T04:51:13.068Z,99.90
2018-07-01T04:53:41.462Z,99.90
2018-07-01T04:56:09.899Z,99.90
2018-07-01T04:58:38.370Z,99.90
2018-07-01T05:01:06.881Z,99.90
2018-07-01T05:03:35.323Z,99.90
2018-07-01T05:06:04.167Z,99.90
2018-07-01T05:08:32.789Z,99.90
2018-07-01T05:11:01.218Z,99.90
2018-07-01T05:13:29.655Z,99.90
2018-07-01T05:15:58.181Z,99.90
2018-07-01T05:18:26.701Z,99.90
2018-07-01T05:20:55.082Z,99.90
2018-07-01T05:23:23.444Z,99.90
2018-07-01T05:25:51.873Z,99.90
2018-07-01T05:28:20.254Z,99.90
2018-07-01T05:30:48.629Z,99.90
2018-07-01T05:33:17.043Z,99.90
2018-07-01T05:35:45.468Z,99.30
2018-07-01T05:38:13.987Z,98.90
2018-07-01T05:40:42.468Z,98.40
2018-07-01T05:43:10.949Z,98.20
2018-07-01T05:45:46.305Z,97.20
2018-07-01T05:48:15.198Z,96.80
2018-07-01T05:50:43.919Z,97.20
2018-07-01T05:53:12.501Z,96.50
2018-07-01T05:55:40.923Z,96.60
2018-07-01T05:58:09.304Z,97.00
2018-07-01T06:00:37.713Z,96.30
2018-07-01T06:03:06.145Z,96.30
2018-07-01T06:05:34.607Z,95.60
2018-07-01T06:08:03.055Z,93.70
2018-07-01T06:10:31.447Z,94.30
2018-07-01T06:12:59.873Z,95.90
2018-07-01T06:15:28.304Z,93.40
2018-07-01T06:17:56.691Z,93.20
2018-07-01T06:20:25.136Z,93.00
2018-07-01T06:22:53.712Z,93.10
2018-07-01T06:25:22.273Z,94.10
2018-07-01T06:27:50.798Z,93.20
2018-07-01T06:30:19.346Z,93.10
2018-07-01T06:32:47.891Z,93.10
2018-07-01T06:35:16.384Z,92.20
2018-07-01T06:37:46.200Z,91.10
2018-07-01T06:40:14.610Z,90.80
2018-07-01T06:42:43.044Z,91.60
2018-07-01T06:45:11.558Z,91.90
2018-07-01T06:47:39.972Z,91.50
2018-07-01T06:50:08.453Z,90.70
2018-07-01T06:52:36.925Z,91.40
2018-07-01T06:55:05.715Z,91.00
2018-07-01T06:57:34.271Z,90.80
2018-07-01T07:00:02.765Z,88.30
2018-07-01T07:02:31.406Z,89.00
2018-07-01T07:04:59.729Z,90.10
2018-07-01T07:07:28.340Z,87.70
2018-07-01T07:09:56.853Z,89.10
2018-07-01T07:12:25.352Z,90.60
2018-07-01T07:14:53.858Z,88.90
2018-07-01T07:17:22.307Z,83.80
2018-07-01T07:19:50.819Z,82.60
2018-07-01T07:22:19.310Z,82.30
2018-07-01T07:27:15.912Z,84.60
2018-07-01T07:29:44.513Z,84.80
2018-07-01T07:32:13.042Z,81.70
2018-07-01T07:34:41.658Z,82.50
2018-07-01T07:37:10.261Z,81.40
2018-07-01T07:39:38.700Z,82.40
2018-07-01T07:42:07.154Z,81.30
2018-07-01T07:44:35.603Z,81.60
2018-07-01T07:47:04.194Z,83.60
2018-07-01T07:49:32.678Z,81.50
2018-07-01T07:52:01.188Z,82.60
2018-07-01T07:54:29.688Z,79.70
2018-07-01T07:56:58.232Z,76.20
2018-07-01T07:59:26.747Z,78.70
2018-07-01T08:01:55.251Z,78.20
2018-07-01T08:04:23.906Z,78.80
2018-07-01T08:09:20.898Z,79.10
2018-07-01T08:11:49.770Z,77.50
2018-07-01T08:14:18.717Z,78.70
2018-07-01T08:23:35.316Z,76.60
2018-07-01T08:26:04.042Z,68.30
2018-07-01T08:28:32.562Z,66.90
2018-07-01T08:31:01.172Z,64.60
2018-07-01T08:33:29.650Z,65.10
2018-07-01T08:35:58.194Z,66.10
2018-07-01T08:38:26.702Z,64.40
2018-07-01T08:40:55.248Z,61.90
2018-07-01T08:43:23.873Z,60.30
2018-07-01T08:45:52.391Z,60.80
2018-07-01T08:48:20.932Z,62.80
2018-07-01T08:50:49.476Z,63.20
2018-07-01T08:53:18.265Z,60.40
2018-07-01T08:55:47.089Z,58.70
2018-07-01T08:58:15.593Z,57.40
2018-07-01T09:00:44.127Z,55.90
2018-07-01T09:03:12.767Z,57.50
2018-07-01T09:05:41.353Z,62.50
2018-07-01T09:08:09.916Z,64.80
2018-07-01T09:10:38.386Z,63.40
2018-07-01T09:13:06.946Z,66.00
2018-07-01T09:15:35.593Z,64.70
2018-07-01T09:18:04.138Z,66.40
2018-07-01T09:20:32.585Z,64.80
2018-07-01T09:23:01.071Z,63.70
2018-07-01T09:25:29.709Z,58.80
2018-07-01T09:27:58.393Z,60.40
2018-07-01T09:30:27.030Z,60.40
2018-07-01T09:32:55.619Z,58.70
2018-07-01T09:35:24.289Z,60.90
2018-07-01T09:37:52.905Z,61.20
2018-07-01T09:40:21.635Z,58.30
2018-07-01T09:42:56.838Z,58.90
2018-07-01T09:45:25.362Z,59.00
2018-07-01T09:47:54.181Z,59.50
2018-07-01T09:52:50.967Z,59.70
2018-07-01T09:55:19.734Z,60.30
2018-07-01T09:57:48.375Z,60.20
2018-07-01T10:00:17.349Z,58.70
2018-07-01T10:02:45.874Z,56.90
2018-07-01T10:05:14.475Z,58.00
2018-07-01T10:07:43.103Z,55.30
2018-07-01T10:10:11.741Z,57.60
2018-07-01T10:15:08.617Z,58.60
2018-07-01T10:17:37.170Z,56.60
2018-07-01T10:20:05.933Z,55.80
2018-07-01T10:22:34.525Z,57.90
2018-07-01T10:25:03.224Z,55.20
2018-07-01T10:27:31.971Z,55.40
2018-07-01T10:30:01.165Z,57.80
2018-07-01T10:32:30.039Z,55.70
2018-07-01T10:34:58.827Z,55.30
2018-07-01T10:37:28.322Z,53.60
2018-07-01T10:39:57.951Z,55.60
2018-07-01T10:42:26.565Z,54.90
2018-07-01T10:44:55.322Z,57.10
2018-07-01T10:47:24.073Z,53.40
2018-07-01T10:49:52.830Z,53.50
2018-07-01T10:52:21.399Z,53.70
2018-07-01T10:54:50.276Z,52.90
2018-07-01T10:57:19.002Z,50.80
2018-07-01T10:59:47.751Z,49.70
2018-07-01T11:02:16.543Z,48.50
2018-07-01T11:04:45.123Z,49.40
2018-07-01T11:07:13.685Z,50.70
2018-07-01T11:09:42.170Z,48.20
2018-07-01T11:12:10.708Z,48.70
2018-07-01T11:14:39.231Z,50.00
2018-07-01T11:17:07.784Z,49.90
2018-07-01T11:22:04.977Z,51.30
2018-07-01T11:24:33.475Z,50.10
2018-07-01T11:27:02.340Z,49.40
2018-07-01T11:29:30.452Z,51.80
2018-07-01T11:31:59.011Z,50.70
2018-07-01T11:34:27.550Z,49.30
2018-07-01T11:36:56.117Z,48.70
2018-07-01T11:39:24.608Z,47.90
2018-07-01T11:41:53.231Z,47.50
2018-07-01T11:44:21.730Z,47.90
2018-07-01T11:46:50.239Z,48.50
2018-07-01T11:49:18.776Z,49.10
2018-07-01T11:51:47.254Z,47.20
2018-07-01T11:54:15.940Z,46.50
2018-07-01T11:56:44.597Z,45.30
2018-07-01T12:01:41.486Z,45.10
2018-07-01T12:04:10.122Z,45.70
2018-07-01T12:06:38.770Z,46.40
2018-07-01T12:09:08.920Z,47.20
2018-07-01T12:11:37.777Z,44.40
2018-07-01T12:14:06.478Z,43.10
2018-07-01T12:16:35.034Z,42.70
2018-07-01T12:19:03.639Z,43.40
2018-07-01T12:21:32.366Z,45.10
2018-07-01T12:24:01.737Z,45.40
2018-07-01T12:26:30.363Z,45.60
2018-07-01T12:28:59.020Z,45.10
2018-07-01T12:31:27.542Z,44.10
2018-07-01T12:33:56.105Z,42.20
2018-07-01T12:36:24.908Z,43.80
2018-07-01T12:38:53.560Z,43.60
2018-07-01T12:41:22.159Z,44.00
2018-07-01T12:43:50.723Z,42.40
2018-07-01T12:46:19.387Z,43.00
2018-07-01T12:48:47.959Z,42.30
2018-07-01T12:51:16.563Z,43.10
2018-07-01T12:53:45.169Z,43.30
2018-07-01T12:56:13.842Z,42.60
2018-07-01T12:58:42.453Z,40.70
2018-07-01T13:01:11.179Z,40.20
2018-07-01T13:03:39.660Z,40.10
2018-07-01T13:06:08.192Z,40.20
2018-07-01T13:08:36.848Z,42.90
2018-07-01T13:11:05.439Z,42.80
2018-07-01T13:13:34.059Z,40.20
2018-07-01T13:16:02.652Z,38.50
2018-07-01T13:18:31.330Z,37.40
2018-07-01T13:20:59.926Z,37.60
2018-07-01T13:23:28.437Z,38.70
2018-07-01T13:25:57.012Z,39.00
2018-07-01T13:28:25.666Z,38.70
2018-07-01T13:30:54.288Z,39.00
2018-07-01T13:33:22.822Z,38.60
2018-07-01T13:35:51.515Z,39.00
2018-07-01T13:38:20.195Z,37.90
2018-07-01T13:40:48.856Z,36.20
2018-07-01T13:43:17.628Z,36.10
2018-07-01T13:45:46.255Z,37.20
2018-07-01T13:48:14.838Z,39.20
2018-07-01T13:50:44.590Z,44.60
2018-07-01T13:53:13.220Z,46.30
2018-07-01T13:55:41.776Z,46.30
2018-07-01T13:58:10.424Z,47.90
2018-07-01T14:00:39.018Z,48.10
2018-07-01T14:03:07.584Z,48.10
2018-07-01T14:05:36.370Z,47.80
2018-07-01T14:08:04.939Z,48.30
2018-07-01T14:10:33.695Z,49.70
2018-07-01T14:13:02.258Z,50.00
2018-07-01T14:15:30.809Z,49.70
2018-07-01T14:17:59.399Z,48.00
2018-07-01T14:20:28.001Z,48.80
2018-07-01T14:22:56.548Z,48.90
2018-07-01T14:25:25.053Z,50.20
2018-07-01T14:27:53.613Z,51.00
2018-07-01T14:30:22.173Z,51.50
2018-07-01T14:35:18.924Z,53.60
2018-07-01T14:37:47.512Z,52.30
2018-07-01T14:40:16.138Z,53.60
2018-07-01T14:42:44.640Z,52.00
2018-07-01T14:45:13.138Z,52.00
2018-07-01T14:47:41.854Z,51.10
2018-07-01T14:52:38.762Z,50.10
2018-07-01T14:55:07.350Z,51.10
2018-07-01T14:57:36.218Z,52.50
2018-07-01T15:00:05.097Z,51.80
2018-07-01T15:02:33.658Z,51.60
2018-07-01T15:05:02.210Z,51.80
2018-07-01T15:07:30.729Z,52.50
2018-07-01T15:09:59.571Z,52.00
2018-07-01T15:12:28.110Z,51.60
2018-07-01T15:14:56.637Z,51.60
2018-07-01T15:17:25.420Z,49.90
2018-07-01T15:19:54.036Z,50.60
2018-07-01T15:22:22.580Z,51.20
2018-07-01T15:24:51.161Z,50.90
2018-07-01T15:27:19.885Z,51.90
2018-07-01T15:29:48.705Z,51.50
2018-07-01T15:32:17.331Z,51.30
2018-07-01T15:34:46.217Z,51.60
2018-07-01T15:37:15.453Z,51.30
2018-07-01T15:39:43.926Z,51.80
2018-07-01T15:42:12.772Z,52.50
2018-07-01T15:44:41.422Z,52.60
2018-07-01T15:47:09.968Z,52.00
2018-07-01T15:49:38.447Z,53.30
2018-07-01T15:52:07.125Z,53.00
2018-07-01T15:54:35.714Z,54.20
2018-07-01T15:57:04.320Z,54.80
2018-07-01T15:59:33.036Z,54.80
2018-07-01T16:02:01.664Z,55.50
2018-07-01T16:04:30.254Z,55.50
2018-07-01T16:06:58.898Z,54.70
2018-07-01T16:09:27.474Z,53.90
2018-07-01T16:11:56.194Z,54.00
2018-07-01T16:14:24.801Z,54.20
2018-07-01T16:16:53.394Z,53.60
2018-07-01T16:19:22.123Z,54.20
2018-07-01T16:21:50.843Z,53.80
2018-07-01T16:24:19.446Z,53.50
2018-07-01T16:26:53.320Z,53.40
2018-07-01T16:29:21.891Z,53.00
2018-07-01T16:31:50.516Z,53.80
2018-07-01T16:34:19.137Z,53.30
2018-07-01T16:36:47.991Z,52.90
2018-07-01T16:39:16.487Z,53.80
2018-07-01T16:41:45.005Z,53.60
2018-07-01T16:44:13.554Z,54.20
2018-07-01T16:46:42.512Z,54.00
2018-07-01T16:49:11.116Z,55.20
2018-07-01T16:51:39.813Z,55.10
2018-07-01T16:54:08.377Z,54.80
2018-07-01T16:56:36.985Z,54.70
2018-07-01T16:59:05.696Z,54.70
2018-07-01T17:01:34.701Z,54.40
2018-07-01T17:04:03.567Z,55.50
2018-07-01T17:06:32.377Z,55.30
2018-07-01T17:09:01.095Z,55.40
2018-07-01T17:11:30.885Z,54.60
2018-07-01T17:13:59.612Z,54.20
2018-07-01T17:16:28.295Z,54.40
2018-07-01T17:18:57.043Z,56.30
2018-07-01T17:21:26.868Z,54.90
2018-07-01T17:23:55.519Z,55.40
2018-07-01T17:26:24.163Z,55.00
2018-07-01T17:28:53.221Z,55.50
2018-07-01T17:31:27.307Z,55.40
2018-07-01T17:33:55.883Z,54.80
2018-07-01T17:36:24.757Z,55.20
2018-07-01T17:38:53.442Z,55.70
2018-07-01T17:43:50.589Z,55.30
2018-07-01T17:46:36.186Z,55.30
2018-07-01T17:49:05.785Z,55.30
2018-07-01T17:51:35.632Z,55.60
2018-07-01T17:54:04.880Z,56.10
2018-07-01T17:56:33.539Z,55.90
2018-07-01T17:59:02.261Z,56.30
2018-07-01T18:01:30.917Z,56.70
2018-07-01T18:03:59.606Z,56.60
2018-07-01T18:06:28.198Z,56.80
2018-07-01T18:08:56.709Z,57.20
2018-07-01T18:11:25.277Z,57.40
2018-07-01T18:13:53.813Z,57.90
2018-07-01T18:16:22.501Z,58.00
2018-07-01T18:18:51.495Z,58.60
2018-07-01T18:21:27.266Z,59.30
2018-07-01T18:24:19.496Z,59.70
2018-07-01T18:26:17.485Z,59.60
2018-07-01T18:28:55.767Z,60.70
2018-07-01T18:31:15.042Z,61.00
2018-07-01T18:33:43.801Z,60.50
2018-07-01T18:36:12.608Z,60.80
2018-07-01T18:38:41.212Z,61.70
2018-07-01T18:41:09.797Z,61.90
2018-07-01T18:43:38.715Z,61.80
2018-07-01T18:46:07.773Z,62.60
2018-07-01T18:48:36.440Z,63.00
2018-07-01T18:51:05.759Z,63.90
2018-07-01T18:53:34.767Z,64.70
2018-07-01T18:56:03.393Z,65.40
2018-07-01T18:58:31.959Z,66.40
2018-07-01T19:01:00.670Z,67.40
2018-07-01T19:03:29.269Z,68.00
2018-07-01T19:05:58.066Z,69.60
2018-07-01T19:08:26.727Z,70.50
2018-07-01T19:10:55.460Z,72.00
2018-07-01T19:13:24.185Z,73.00
2018-07-01T19:15:52.886Z,73.80
2018-07-01T19:18:21.636Z,75.00
2018-07-01T19:20:50.372Z,75.00
2018-07-01T19:23:19.110Z,75.90
2018-07-01T19:25:47.732Z,76.90
2018-07-01T19:28:16.717Z,77.30
2018-07-01T19:30:45.765Z,78.40
2018-07-01T19:33:15.319Z,78.50
2018-07-01T19:35:44.314Z,79.40
2018-07-01T19:38:13.335Z,79.80
2018-07-01T19:40:42.265Z,80.40
2018-07-01T19:43:11.527Z,81.00
2018-07-01T19:45:40.821Z,82.20
2018-07-01T19:48:09.734Z,83.00
2018-07-01T19:50:38.477Z,83.70
2018-07-01T19:53:07.681Z,85.10
2018-07-01T19:55:36.592Z,85.80
2018-07-01T19:58:05.612Z,86.30
2018-07-01T20:00:35.696Z,86.70
2018-07-01T20:03:10.897Z,87.30
2018-07-01T20:05:39.525Z,88.10
2018-07-01T20:08:08.467Z,89.00
2018-07-01T20:10:37.445Z,89.80
2018-07-01T20:13:06.252Z,90.20
2018-07-01T20:18:03.642Z,90.90
2018-07-01T20:20:32.498Z,91.10
2018-07-01T20:23:01.232Z,91.50
2018-07-01T20:25:30.756Z,92.20
2018-07-01T20:28:00.089Z,92.40
2018-07-01T20:30:29.165Z,93.00
2018-07-01T20:32:58.603Z,93.50
2018-07-01T20:35:27.989Z,93.80
2018-07-01T20:37:57.381Z,94.30
2018-07-01T20:40:26.821Z,94.60
2018-07-01T20:42:57.033Z,94.60
2018-07-01T20:45:26.523Z,94.80
2018-07-01T20:47:55.755Z,95.10
2018-07-01T20:50:25.534Z,95.20
2018-07-01T20:52:54.205Z,95.20
2018-07-01T20:55:22.757Z,95.30
2018-07-01T20:57:51.334Z,95.30
2018-07-01T21:00:19.995Z,95.50
2018-07-01T21:02:48.799Z,95.70
2018-07-01T21:05:17.691Z,95.40
2018-07-01T21:07:46.540Z,95.60
2018-07-01T21:10:15.306Z,95.70
2018-07-01T21:12:44.033Z,95.90
2018-07-01T21:15:13.039Z,96.00
2018-07-01T21:17:41.942Z,96.10
2018-07-01T21:20:10.630Z,96.30
2018-07-01T21:22:40.757Z,96.30
2018-07-01T21:27:39.884Z,96.40
2018-07-01T21:30:10.226Z,96.60
2018-07-01T21:32:38.767Z,96.70
2018-07-01T21:35:07.480Z,96.80
2018-07-01T21:40:04.584Z,97.60
2018-07-01T21:42:33.144Z,98.10
2018-07-01T21:45:01.721Z,98.50
2018-07-01T21:47:30.438Z,98.90
2018-07-01T21:49:59.018Z,99.10
2018-07-01T21:52:27.561Z,99.30
2018-07-01T21:54:56.070Z,99.40
2018-07-01T21:57:24.650Z,99.70
2018-07-01T21:59:53.218Z,99.70
2018-07-01T22:02:21.890Z,99.90
2018-07-01T22:04:50.520Z,99.90
2018-07-01T22:07:19.061Z,99.90
2018-07-01T22:09:47.590Z,99.90
2018-07-01T22:12:27.420Z,99.90
2018-07-01T22:15:11.339Z,99.90
2018-07-01T22:17:39.913Z,99.90
2018-07-01T22:20:08.343Z,99.90
2018-07-01T22:22:36.902Z,99.90
2018-07-01T22:25:05.381Z,99.90
2018-07-01T22:27:33.984Z,99.90
2018-07-01T22:30:02.409Z,99.90
2018-07-01T22:32:30.859Z,99.90
2018-07-01T22:34:59.265Z,99.90
2018-07-01T22:37:27.793Z,99.90
2018-07-01T22:39:56.284Z,99.90
2018-07-01T22:42:24.772Z,99.90
2018-07-01T22:44:53.323Z,99.90
2018-07-01T22:47:21.792Z,99.90
2018-07-01T22:49:50.304Z,99.90
2018-07-01T22:52:18.736Z,99.90
2018-07-01T22:54:47.174Z,99.90
2018-07-01T22:57:15.654Z,99.90
2018-07-01T22:59:44.091Z,99.90
2018-07-01T23:02:49.964Z,99.90
2018-07-01T23:05:18.930Z,99.90
2018-07-01T23:07:47.465Z,99.90
2018-07-01T23:10:16.267Z,99.90
2018-07-01T23:12:44.895Z,99.90
2018-07-01T23:15:13.941Z,99.90
2018-07-01T23:17:42.996Z,99.90
2018-07-01T23:20:11.532Z,99.90
2018-07-01T23:22:40.402Z,99.90
2018-07-01T23:25:08.993Z,99.90
2018-07-01T23:27:37.564Z,99.90
2018-07-01T23:30:06.157Z,99.90
2018-07-01T23:32:34.681Z,99.90
2018-07-01T23:35:03.162Z,99.90
2018-07-01T23:37:31.780Z,99.90
2018-07-01T23:40:00.277Z,99.90
2018-07-01T23:42:28.736Z,99.90
2018-07-01T23:44:57.176Z,99.90
2018-07-01T23:47:25.637Z,99.90
2018-07-01T23:49:54.043Z,99.90
2018-07-01T23:52:22.514Z,99.90
2018-07-01T23:54:50.973Z,99.90
2018-07-01T23:57:19.388Z,99.90
2018-07-01T23:59:47.837Z,99.90
